Time;durP1;ratioP1;P1;durP2;ratioP2;P2;SDS_P1;SDS_P2;PMS_P1;PMS_P2;Temp;Humidity;BMP_temperature;BMP_pressure;BME280_temperature;BME280_humidity;BME280_pressure;Samples;Min_cycle;Max_cycle;Signal;HPM_P1;HPM_P2
2024/04/11 00:00:13;;;;;;;;;;;;;;;;;;5413271;26;19929;-66
2024/04/11 00:02:39;;;;;;;;;;;;;;;;;;5422038;26;20269;-64
2024/04/11 00:05:04;;;;;;;;;;;;;;;;;;5442671;26;19936;-65
2024/04/11 00:07:29;;;;;;;;;;;;;;;;;;5420306;26;19933;-65
2024/04/11 00:09:54;;;;;;;;;;;;;;;;;;5419354;26;19929;-62
2024/04/11 00:12:19;;;;;;;;;;;;;;;;;;5415836;26;19928;-65
2024/04/11 00:14:45;;;;;;;;;;;;;;;;;;5416981;26;19933;-66
2024/04/11 00:17:10;;;;;;;;;;;;;;;;;;5408991;26;19941;-65
2024/04/11 00:19:35;;;;;;;;;;;;;;;;;;5419295;26;19933;-65
2024/04/11 00:22:00;;;;;;;;;;;;;;;;;;5436449;26;19940;-65
2024/04/11 00:24:26;;;;;;;;;;;;;;;;;;5425124;26;19976;-65
2024/04/11 00:26:51;;;;;;;;;;;;;;;;;;5428556;26;20238;-65
2024/04/11 00:29:17;;;;;;;;;;;;;;;;;;5410582;26;20435;-64
2024/04/11 00:31:42;;;;;;;;;;;;;;;;;;5418514;26;19929;-66
2024/04/11 00:34:13;;;;;;;;;;;;;;;;;;5408627;26;19932;-65
2024/04/11 00:36:40;;;;;;;;;;;;;;;;;;5436450;26;19940;-65
2024/04/11 00:39:05;;;;;;;;;;;;;;;;;;5408629;26;19929;-64
2024/04/11 00:41:31;;;;;;;;;;;;;;;;;;5433945;26;19929;-65
2024/04/11 00:43:57;;;;;;;;;;;;;;;;;;5423276;26;19937;-65
2024/04/11 00:46:22;;;;;;;;;;;;;;;;;;5442135;26;20255;-65
2024/04/11 00:48:47;;;;;;;;;;;;;;;;;;5416964;26;19929;-65
2024/04/11 00:51:12;;;;;;;;;;;;;;;;;;5435720;26;19958;-64
2024/04/11 00:53:37;;;;;;;;;;;;;;;;;;5457125;26;19928;-65
2024/04/11 00:56:04;;;;;;;;;;;;;;;;;;5460575;26;19929;-65
2024/04/11 00:58:29;;;;;;;;;;;;;;;;;;5466292;26;19940;-63
2024/04/11 01:00:54;;;;;;;;;;;;;;;;;;5480063;26;19928;-65
2024/04/11 01:03:19;;;;;;;;;;;;;;;;;;5459420;26;20022;-65
2024/04/11 01:05:44;;;;;;;;;;;;;;;;;;5441497;26;19940;-64
2024/04/11 01:08:10;;;;;;;;;;;;;;;;;;5443163;26;20341;-64
2024/04/11 01:10:35;;;;;;;;;;;;;;;;;;5444043;26;19932;-65
2024/04/11 01:13:01;;;;;;;;;;;;;;;;;;5444064;26;19935;-65
2024/04/11 01:15:27;;;;;;;;;;;;;;;;;;5442697;26;19936;-66
2024/04/11 01:17:52;;;;;;;;;;;;;;;;;;5444272;26;19941;-65
2024/04/11 01:20:17;;;;;;;;;;;;;;;;;;5446567;26;19940;-64
2024/04/11 01:22:42;;;;;;;;;;;;;;;;;;5442834;26;20502;-65
2024/04/11 01:25:08;;;;;;;;;;;;;;;;;;5443222;26;19956;-62
2024/04/11 01:27:33;;;;;;;;;;;;;;;;;;5443881;26;19944;-65
2024/04/11 01:29:58;;;;;;;;;;;;;;;;;;5443377;26;20199;-64
2024/04/11 01:32:24;;;;;;;;;;;;;;;;;;5443687;26;20269;-63
2024/04/11 01:34:56;;;;;;;;;;;;;;;;;;5443783;26;19997;-64
2024/04/11 01:37:21;;;;;;;;;;;;;;;;;;5442415;26;20405;-64
2024/04/11 01:39:46;;;;;;;;;;;;;;;;;;5442938;26;20398;-65
2024/04/11 01:42:11;;;;;;;;;;;;;;;;;;5442989;26;19932;-64
2024/04/11 01:44:36;;;;;;;;;;;;;;;;;;5443844;26;19928;-64
2024/04/11 01:47:01;;;;;;;;;;;;;;;;;;5443035;26;19932;-66
2024/04/11 01:49:30;;;;;;;;;;;;;;;;;;5480487;25;20678;-65
2024/04/11 01:51:55;;;;;;;;;;;;;;;;;;5468777;26;20244;-65
2024/04/11 01:54:21;;;;;;;;;;;;;;;;;;5471006;26;19935;-64
2024/04/11 01:56:46;;;;;;;;;;;;;;;;;;5478477;26;19928;-63
2024/04/11 01:59:11;;;;;;;;;;;;;;;;;;5461217;26;20254;-64
2024/04/11 02:01:36;;;;;;;;;;;;;;;;;;5468557;26;19928;-64
2024/04/11 02:04:05;;;;;;;;;;;;;;;;;;5473981;25;20486;-65
2024/04/11 02:06:30;;;;;;;;;;;;;;;;;;5458081;25;20025;-65
2024/04/11 02:08:56;;;;;;;;;;;;;;;;;;5439050;26;20531;-63
2024/04/11 02:11:23;;;;;;;;;;;;;;;;;;5442715;26;19940;-63
2024/04/11 02:13:48;;;;;;;;;;;;;;;;;;5454637;26;20448;-64
2024/04/11 02:16:13;;;;;;;;;;;;;;;;;;5477567;25;20280;-63
2024/04/11 02:18:38;;;;;;;;;;;;;;;;;;5471216;25;19928;-64
2024/04/11 02:21:04;;;;;;;;;;;;;;;;;;5464222;26;19941;-64
2024/04/11 02:23:30;;;;;;;;;;;;;;;;;;5479492;25;19997;-65
2024/04/11 02:25:56;;;;;;;;;;;;;;;;;;5478933;25;19928;-64
2024/04/11 02:28:24;;;;;;;;;;;;;;;;;;5477695;25;19935;-66
2024/04/11 02:30:49;;;;;;;;;;;;;;;;;;5470342;26;20394;-64
2024/04/11 02:33:14;;;;;;;;;;;;;;;;;;5446748;26;19933;-64
2024/04/11 02:35:39;;;;;;;;;;;;;;;;;;5445338;26;19940;-64
2024/04/11 02:38:04;;;;;;;;;;;;;;;;;;5468768;26;20641;-65
2024/04/11 02:40:29;;;;;;;;;;;;;;;;;;5480894;26;19927;-65
2024/04/11 02:42:54;;;;;;;;;;;;;;;;;;5454681;26;19935;-65
2024/04/11 02:45:21;;;;;;;;;;;;;;;;;;5492357;26;20317;-64
2024/04/11 02:47:46;;;;;;;;;;;;;;;;;;5481515;25;20012;-65
2024/04/11 02:50:15;;;;;;;;;;;;;;;;;;5469347;25;19971;-64
2024/04/11 02:52:41;;;;;;;;;;;;;;;;;;5462370;25;20720;-65
2024/04/11 02:55:06;;;;;;;;;;;;;;;;;;5461032;26;19935;-65
2024/04/11 02:57:31;;;;;;;;;;;;;;;;;;5460400;25;20444;-64
2024/04/11 02:59:56;;;;;;;;;;;;;;;;;;5446051;26;19929;-66
2024/04/11 03:02:23;;;;;;;;;;;;;;;;;;5464270;26;20125;-65
2024/04/11 03:04:50;;;;;;;;;;;;;;;;;;5470380;26;20001;-64
2024/04/11 03:07:16;;;;;;;;;;;;;;;;;;5452949;26;20597;-65
2024/04/11 03:09:41;;;;;;;;;;;;;;;;;;5444880;26;19928;-65
2024/04/11 03:12:07;;;;;;;;;;;;;;;;;;5445103;26;20370;-65
2024/04/11 03:14:32;;;;;;;;;;;;;;;;;;5445113;26;19936;-65
2024/04/11 03:16:59;;;;;;;;;;;;;;;;;;5459358;26;20264;-65
2024/04/11 03:19:25;;;;;;;;;;;;;;;;;;5462191;25;19956;-62
2024/04/11 03:21:50;;;;;;;;;;;;;;;;;;5484418;25;19954;-65
2024/04/11 03:24:15;;;;;;;;;;;;;;;;;;5452316;26;20357;-64
2024/04/11 03:26:40;;;;;;;;;;;;;;;;;;5468914;26;20295;-64
2024/04/11 03:29:05;;;;;;;;;;;;;;;;;;5444982;26;19970;-65
2024/04/11 03:31:30;;;;;;;;;;;;;;;;;;5428669;26;19929;-63
2024/04/11 03:33:58;;;;;;;;;;;;;;;;;;5462096;26;19944;-64
2024/04/11 03:36:23;;;;;;;;;;;;;;;;;;5468496;26;19928;-64
2024/04/11 03:38:48;;;;;;;;;;;;;;;;;;5445957;26;19935;-64
2024/04/11 03:41:14;;;;;;;;;;;;;;;;;;5455715;26;19929;-65
2024/04/11 03:43:39;;;;;;;;;;;;;;;;;;5432778;26;20274;-65
2024/04/11 03:46:07;;;;;;;;;;;;;;;;;;5430426;26;19935;-65
2024/04/11 03:48:32;;;;;;;;;;;;;;;;;;5444999;26;19928;-64
2024/04/11 03:50:57;;;;;;;;;;;;;;;;;;5439187;26;19929;-64
2024/04/11 03:53:22;;;;;;;;;;;;;;;;;;5434707;26;19928;-65
2024/04/11 03:55:47;;;;;;;;;;;;;;;;;;5426739;26;19940;-65
2024/04/11 03:58:13;;;;;;;;;;;;;;;;;;5440924;26;20240;-65
2024/04/11 04:00:39;;;;;;;;;;;;;;;;;;5454467;26;19928;-64
2024/04/11 04:03:04;;;;;;;;;;;;;;;;;;5479240;26;19961;-63
2024/04/11 04:05:30;;;;;;;;;;;;;;;;;;5479294;25;19935;-64
2024/04/11 04:07:55;;;;;;;;;;;;;;;;;;5438809;25;20354;-64
2024/04/11 04:10:20;;;;;;;;;;;;;;;;;;5447367;26;19928;-64
2024/04/11 04:12:45;;;;;;;;;;;;;;;;;;5479417;26;19943;-65
2024/04/11 04:15:11;;;;;;;;;;;;;;;;;;5481066;25;20307;-62
2024/04/11 04:17:36;;;;;;;;;;;;;;;;;;5479220;25;19940;-65
2024/04/11 04:20:03;;;;;;;;;;;;;;;;;;5485229;25;20276;-65
2024/04/11 04:22:28;;;;;;;;;;;;;;;;;;5481477;25;19947;-64
2024/04/11 04:24:53;;;;;;;;;;;;;;;;;;5481440;25;19932;-65
2024/04/11 04:27:18;;;;;;;;;;;;;;;;;;5478903;25;20114;-65
2024/04/11 04:29:43;;;;;;;;;;;;;;;;;;5456139;25;19936;-65
2024/04/11 04:32:09;;;;;;;;;;;;;;;;;;5461251;26;19935;-66
2024/04/11 04:34:34;;;;;;;;;;;;;;;;;;5466394;26;19964;-64
2024/04/11 04:36:59;;;;;;;;;;;;;;;;;;5482047;26;20361;-65
2024/04/11 04:39:30;;;;;;;;;;;;;;;;;;5480453;25;19936;-64
2024/04/11 04:41:55;;;;;;;;;;;;;;;;;;5480144;26;19939;-63
2024/04/11 04:44:22;;;;;;;;;;;;;;;;;;5465154;25;21465;-64
2024/04/11 04:46:47;;;;;;;;;;;;;;;;;;5471470;26;19928;-65
2024/04/11 04:49:12;;;;;;;;;;;;;;;;;;5451498;25;19928;-63
2024/04/11 04:51:38;;;;;;;;;;;;;;;;;;5466016;26;20371;-64
2024/04/11 04:54:03;;;;;;;;;;;;;;;;;;5477905;26;19936;-65
2024/04/11 04:56:28;;;;;;;;;;;;;;;;;;5469009;26;19928;-65
2024/04/11 04:58:53;;;;;;;;;;;;;;;;;;5456114;26;19931;-65
2024/04/11 05:01:18;;;;;;;;;;;;;;;;;;5479213;25;19935;-65
2024/04/11 05:03:44;;;;;;;;;;;;;;;;;;5480868;25;20065;-64
2024/04/11 05:06:12;;;;;;;;;;;;;;;;;;5434247;25;19929;-66
2024/04/11 05:08:37;;;;;;;;;;;;;;;;;;5454000;25;19936;-66
2024/04/11 05:11:10;;;;;;;;;;;;;;;;;;5480708;26;19928;-64
2024/04/11 05:13:37;;;;;;;;;;;;;;;;;;5480302;26;19932;-64
2024/04/11 05:16:06;;;;;;;;;;;;;;;;;;5463229;25;19954;-64
2024/04/11 05:18:31;;;;;;;;;;;;;;;;;;5479652;25;19954;-64
2024/04/11 05:20:56;;;;;;;;;;;;;;;;;;5475098;26;20318;-64
2024/04/11 05:23:26;;;;;;;;;;;;;;;;;;5480041;25;20353;-64
2024/04/11 05:25:51;;;;;;;;;;;;;;;;;;5480059;25;20479;-64
2024/04/11 05:28:17;;;;;;;;;;;;;;;;;;5479609;25;20368;-64
2024/04/11 05:30:43;;;;;;;;;;;;;;;;;;5479657;26;19928;-64
2024/04/11 05:33:08;;;;;;;;;;;;;;;;;;5479932;25;20375;-64
2024/04/11 05:35:33;;;;;;;;;;;;;;;;;;5462337;26;19940;-65
2024/04/11 05:37:59;;;;;;;;;;;;;;;;;;5478588;26;19934;-65
2024/04/11 05:40:24;;;;;;;;;;;;;;;;;;5479729;25;19936;-65
2024/04/11 05:42:49;;;;;;;;;;;;;;;;;;5480598;25;19936;-65
2024/04/11 05:45:19;;;;;;;;;;;;;;;;;;5479931;25;19976;-65
2024/04/11 05:47:44;;;;;;;;;;;;;;;;;;5479903;25;19935;-65
2024/04/11 05:50:09;;;;;;;;;;;;;;;;;;5478011;25;19928;-65
2024/04/11 05:52:34;;;;;;;;;;;;;;;;;;5479123;25;20373;-64
2024/04/11 05:55:02;;;;;;;;;;;;;;;;;;5454596;25;19936;-65
2024/04/11 05:57:27;;;;;;;;;;;;;;;;;;5439951;26;19984;-64
2024/04/11 05:59:55;;;;;;;;;;;;;;;;;;5443111;26;19994;-66
2024/04/11 06:02:20;;;;;;;;;;;;;;;;;;5474131;26;19928;-66
2024/04/11 06:04:46;;;;;;;;;;;;;;;;;;5466801;26;20368;-65
2024/04/11 06:07:11;;;;;;;;;;;;;;;;;;5472453;25;19928;-65
2024/04/11 06:09:36;;;;;;;;;;;;;;;;;;5479514;25;19935;-65
2024/04/11 06:12:01;;;;;;;;;;;;;;;;;;5444111;25;19961;-67
2024/04/11 06:14:26;;;;;;;;;;;;;;;;;;5448142;26;19940;-66
2024/04/11 06:16:51;;;;;;;;;;;;;;;;;;5464452;26;19929;-66
2024/04/11 06:19:16;;;;;;;;;;;;;;;;;;5426199;26;19933;-64
2024/04/11 06:21:45;;;;;;;;;;;;;;;;;;5439021;26;20441;-65
2024/04/11 06:24:10;;;;;;;;;;;;;;;;;;5426541;26;19929;-66
2024/04/11 06:26:35;;;;;;;;;;;;;;;;;;5437568;26;19935;-65
2024/04/11 06:29:01;;;;;;;;;;;;;;;;;;5422322;26;20391;-66
2024/04/11 06:31:30;;;;;;;;;;;;;;;;;;5437840;26;19937;-67
2024/04/11 06:33:55;;;;;;;;;;;;;;;;;;5428599;26;19937;-66
2024/04/11 06:36:20;;;;;;;;;;;;;;;;;;5426712;26;19929;-66
2024/04/11 06:38:46;;;;;;;;;;;;;;;;;;5440007;26;20393;-67
2024/04/11 06:41:18;;;;;;;;;;;;;;;;;;5435764;26;20273;-66
2024/04/11 06:43:44;;;;;;;;;;;;;;;;;;5437413;26;19928;-67
2024/04/11 06:46:10;;;;;;;;;;;;;;;;;;5435120;26;19935;-65
2024/04/11 06:48:35;;;;;;;;;;;;;;;;;;5438378;26;19932;-64
2024/04/11 06:51:01;;;;;;;;;;;;;;;;;;5441459;26;19939;-67
2024/04/11 06:53:27;;;;;;;;;;;;;;;;;;5442573;26;19929;-66
2024/04/11 06:55:52;;;;;;;;;;;;;;;;;;5442445;26;19993;-67
2024/04/11 06:58:22;;;;;;;;;;;;;;;;;;5435299;26;20256;-67
2024/04/11 07:00:47;;;;;;;;;;;;;;;;;;5438125;26;19929;-68
2024/04/11 07:03:26;;;;;;;;;;;;;;;;;;5435179;26;19933;-65
2024/04/11 07:05:51;;;;;;;;;;;;;;;;;;5466574;26;19944;-64
2024/04/11 07:08:19;;;;;;;;;;;;;;;;;;5441178;26;20388;-64
2024/04/11 07:10:46;;;;;;;;;;;;;;;;;;5469561;26;19939;-64
2024/04/11 07:13:12;;;;;;;;;;;;;;;;;;5478071;25;19928;-64
2024/04/11 07:15:42;;;;;;;;;;;;;;;;;;5480291;25;19928;-64
2024/04/11 07:18:14;;;;;;;;;;;;;;;;;;5479921;25;20230;-64
2024/04/11 07:20:39;;;;;;;;;;;;;;;;;;5458432;26;20268;-67
2024/04/11 07:23:04;;;;;;;;;;;;;;;;;;5451327;26;20274;-67
2024/04/11 07:25:35;;;;;;;;;;;;;;;;;;5477675;26;20306;-67
2024/04/11 07:28:00;;;;;;;;;;;;;;;;;;5481735;25;20034;-67
2024/04/11 07:30:25;;;;;;;;;;;;;;;;;;5480997;25;20267;-66
2024/04/11 07:32:50;;;;;;;;;;;;;;;;;;5477395;25;19928;-64
2024/04/11 07:35:17;;;;;;;;;;;;;;;;;;5481344;25;19939;-67
2024/04/11 07:37:42;;;;;;;;;;;;;;;;;;5478162;25;20352;-66
2024/04/11 07:40:27;;;;;;;;;;;;;;;;;;5463181;25;19942;-67
2024/04/11 07:42:55;;;;;;;;;;;;;;;;;;5468148;25;19935;-67
2024/04/11 07:45:21;;;;;;;;;;;;;;;;;;5480986;25;19928;-66
2024/04/11 07:47:47;;;;;;;;;;;;;;;;;;5481282;25;20380;-66
2024/04/11 07:50:12;;;;;;;;;;;;;;;;;;5480934;25;20351;-64
2024/04/11 07:52:37;;;;;;;;;;;;;;;;;;5480170;25;20387;-66
2024/04/11 07:55:02;;;;;;;;;;;;;;;;;;5467366;25;19981;-64
2024/04/11 07:57:28;;;;;;;;;;;;;;;;;;5444525;26;19932;-65
2024/04/11 07:59:55;;;;;;;;;;;;;;;;;;5444458;26;19956;-64
2024/04/11 08:02:20;;;;;;;;;;;;;;;;;;5465454;26;19928;-63
2024/04/11 08:04:45;;;;;;;;;;;;;;;;;;5478596;26;20357;-63
2024/04/11 08:07:10;;;;;;;;;;;;;;;;;;5474825;26;20305;-64
2024/04/11 08:09:44;;;;;;;;;;;;;;;;;;5481792;26;19928;-64
2024/04/11 08:12:09;;;;;;;;;;;;;;;;;;5472415;25;19936;-63
2024/04/11 08:14:34;;;;;;;;;;;;;;;;;;5489339;25;20121;-64
2024/04/11 08:16:59;;;;;;;;;;;;;;;;;;5493204;26;20314;-64
2024/04/11 08:19:24;;;;;;;;;;;;;;;;;;5477654;25;20348;-63
2024/04/11 08:21:49;;;;;;;;;;;;;;;;;;5470153;25;19967;-64
2024/04/11 08:24:14;;;;;;;;;;;;;;;;;;5478289;26;19928;-64
2024/04/11 08:26:39;;;;;;;;;;;;;;;;;;5500171;25;19935;-64
2024/04/11 08:29:04;;;;;;;;;;;;;;;;;;5468360;26;20288;-63
2024/04/11 08:31:30;;;;;;;;;;;;;;;;;;5495152;26;19976;-64
2024/04/11 08:33:58;;;;;;;;;;;;;;;;;;5504655;26;19935;-64
2024/04/11 08:36:24;;;;;;;;;;;;;;;;;;5477107;26;19939;-64
2024/04/11 08:38:49;;;;;;;;;;;;;;;25.15;nan;102093.22;5507029;26;20407;-63
2024/04/11 08:41:15;;;;;;;;;;;;;;;25.34;nan;102090.72;5510522;25;20392;-64
2024/04/11 08:43:40;;;;;;;;;;;;;;;25.14;nan;102094.25;5491574;26;19932;-64
2024/04/11 08:46:08;;;;;;;;;;;;;;;;;;5510170;25;19934;-65
2024/04/11 08:48:33;;;;;;;;;;;;;;;;;;5507542;26;19928;-64
2024/04/11 08:51:02;;;;;;;;;;;;;;;25.66;nan;102107.06;5477695;25;19928;-66
2024/04/11 08:53:27;;;;;;;;;;;;;;;24.90;nan;102092.19;5482005;26;20240;-66
2024/04/11 08:55:52;;;;;;;;;;;;;;;;;;5500993;25;19935;-65
2024/04/11 08:58:17;;;;;;;;;;;;;;;;;;5497798;25;20290;-66
2024/04/11 09:00:42;;;;;;;;;;;;;;;;;;5489324;25;20366;-63
2024/04/11 09:03:08;;;;;;;;;;;;;;;;;;5498874;25;19928;-64
2024/04/11 09:05:33;;;;;;;;;;;;;;;25.33;nan;102113.41;5493428;26;19927;-66
2024/04/11 09:07:59;;;;;;;;;;;;;;;25.73;nan;102124.97;5479467;25;19936;-66
2024/04/11 09:10:25;;;;;;;;;;;;;;;25.88;nan;102121.19;5454264;25;19990;-67
2024/04/11 09:12:52;;;;;;;;;;;;;;;26.48;nan;102133.38;5482502;25;19927;-65
2024/04/11 09:15:18;;;;;;;;;;;;;;;;;;5465932;26;19935;-64
2024/04/11 09:17:44;;;;;;;;;;;;;;;27.53;nan;102156.34;5477538;26;20436;-63
2024/04/11 09:20:12;;;;;;;;;;;;;;;;;;5492080;25;19936;-64
2024/04/11 09:22:47;;;;;;;;;;;;;;;28.48;nan;102155.81;5502152;26;19935;-64
2024/04/11 09:25:13;;;;;;;;;;;;;;;28.73;nan;102158.38;5500811;25;19936;-65
2024/04/11 09:27:38;;;;;;;;;;;;;;;28.73;nan;102150.19;5503918;25;19927;-64
2024/04/11 09:30:03;;;;;;;;;;;;;;;29.08;nan;102164.94;5493905;25;19939;-63
2024/04/11 09:32:33;;;;;;;;;;;;;;;29.37;nan;102169.47;5508526;25;19927;-64
2024/04/11 09:35:01;;;;;;;;;;;;;;;29.42;nan;102160.56;5508417;25;19927;-64
2024/04/11 09:37:27;;;;;;;;;;;;;;;29.26;nan;102164.00;5499179;25;19939;-64
2024/04/11 09:39:56;;;;;;;;;;;;;;;29.53;nan;102169.78;5499776;25;20276;-64
2024/04/11 09:42:25;;;;;;;;;;;;;;;;;;5496810;25;19928;-64
2024/04/11 09:44:52;;;;;;;;;;;;;;;29.70;nan;102165.31;5504570;25;20268;-63
2024/04/11 09:47:34;;;;;;;;;;;;;;;29.59;nan;102168.84;5499679;25;19995;-64
2024/04/11 09:50:00;;;;;;;;;;;;;;;29.83;nan;102164.19;5442612;26;19936;-64
2024/04/11 09:52:30;;;;;;;;;;;;;;;30.30;nan;102166.81;5488863;25;19934;-64
2024/04/11 09:54:56;;;;;;;;;;;;;;;30.59;nan;102143.00;5470314;25;19935;-63
2024/04/11 09:57:24;;;;;;;;;;;;;;;30.72;nan;102165.59;5478282;25;19936;-67
2024/04/11 09:59:49;;;;;;;;;;;;;;;30.88;nan;102165.63;5450778;26;20013;-66
2024/04/11 10:02:16;;;;;;;;;;;;;;;31.31;nan;102164.09;5472054;25;19935;-66
2024/04/11 10:04:42;;;;;;;;;;;;;;;;;;5508214;25;19927;-66
2024/04/11 10:07:08;;;;;;;;;;;;;;;31.04;nan;102180.38;5499497;25;19939;-66
2024/04/11 10:09:34;;;;;;;;;;;;;;;31.63;nan;102171.69;5502400;25;19935;-67
2024/04/11 10:12:01;;;;;;;;;;;;;;;31.44;nan;102168.44;5500241;25;19927;-65
2024/04/11 10:14:28;;;;;;;;;;;;;;;31.24;nan;102159.91;5514417;25;20342;-66
2024/04/11 10:17:01;;;;;;;;;;;;;;;31.41;nan;102152.50;5486145;25;20307;-66
2024/04/11 10:19:26;;;;;;;;;;;;;;;31.80;nan;102165.31;5473967;25;19935;-66
2024/04/11 10:21:52;;;;;;;;;;;;;;;31.64;nan;102159.66;5475499;25;20265;-66
2024/04/11 10:24:17;;;;;;;;;;;;;;;;;;5443279;26;19929;-66
2024/04/11 10:26:50;;;;;;;;;;;;;;;31.22;nan;102156.59;5467875;26;19934;-66
2024/04/11 10:29:19;;;;;;;;;;;;;;;31.07;nan;102152.56;5467847;26;19935;-66
2024/04/11 10:31:44;;;;;;;;;;;;;;;31.51;nan;102152.69;5454619;26;20257;-65
2024/04/11 10:34:19;;;;;;;;;;;;;;;31.79;nan;102153.56;5488541;25;20252;-66
2024/04/11 10:36:52;;;;;;;;;;;;;;;31.60;nan;102154.97;5488415;26;20368;-67
2024/04/11 10:39:18;;;;;;;;;;;;;;;31.87;nan;102153.13;5493331;26;19928;-66
2024/04/11 10:41:45;;;;;;;;;;;;;;;31.89;nan;102164.63;5484196;25;19997;-66
2024/04/11 10:44:11;;;;;;;;;;;;;;;32.03;nan;102159.59;5481089;25;20090;-65
2024/04/11 10:46:38;;;;;;;;;;;;;;;32.40;nan;102141.66;5480182;25;19935;-66
2024/04/11 10:49:12;;;;;;;;;;;;;;;32.08;nan;102153.38;5492680;25;19929;-66
2024/04/11 10:51:40;;;;;;;;;;;;;;;31.75;nan;102157.91;5467882;26;19937;-66
2024/04/11 10:54:12;;;;;;;;;;;;;;;31.12;nan;102140.88;5483435;25;19934;-65
2024/04/11 10:56:40;;;;;;;;;;;;;;;31.11;nan;102125.56;5464020;26;19935;-66
2024/04/11 10:59:50;;;;;;;;;;;;;;;31.36;nan;102140.66;5465527;26;20298;-65
2024/04/11 11:02:02;;;;;;;;;;;;;;;31.71;nan;102152.09;5473004;26;20014;-66
2024/04/11 11:04:30;;;;;;;;;;;;;;;31.80;nan;102122.41;5465147;25;20149;-67
2024/04/11 11:06:59;;;;;;;;;;;;;;;32.72;nan;102150.72;5473584;26;20347;-66
2024/04/11 11:09:27;;;;;;;;;;;;;;;33.35;nan;102141.88;5494843;25;20294;-66
2024/04/11 11:11:54;;;;;;;;;;;;;;;34.03;nan;102150.91;5515197;25;19935;-66
2024/04/11 11:14:24;;;;;;;;;;;;;;;34.15;nan;102144.38;5466086;26;19928;-66
2024/04/11 11:16:50;;;;;;;;;;;;;;;33.87;nan;102138.25;5496504;25;19928;-66
2024/04/11 11:19:16;;;;;;;;;;;;;;;33.80;nan;102140.41;5475938;26;20273;-66
2024/04/11 11:21:44;;;;;;;;;;;;;;;32.97;nan;102136.41;5471795;25;20002;-66
2024/04/11 11:24:15;;;;;;;;;;;;;;;31.82;nan;102125.72;5487684;25;19938;-66
2024/04/11 11:26:44;;;;;;;;;;;;;;;30.53;nan;102126.78;5459118;26;19928;-65
2024/04/11 11:29:10;;;;;;;;;;;;;;;29.05;nan;102117.19;5477729;25;19928;-66
2024/04/11 11:31:40;;;;;;;;;;;;;;;27.75;nan;102105.91;5494049;25;19928;-64
2024/04/11 11:34:09;;;;;;;;;;;;;;;26.94;nan;102087.97;5460898;26;20229;-65
2024/04/11 11:36:44;;;;;;;;;;;;;;;26.41;nan;102086.47;5485491;26;19928;-65
2024/04/11 11:39:17;;;;;;;;;;;;;;;25.64;nan;102061.22;5467981;26;19937;-65
2024/04/11 11:41:47;;;;;;;;;;;;;;;25.17;nan;102063.19;5475451;26;20002;-64
2024/04/11 11:44:17;;;;;;;;;;;;;;;25.00;nan;102058.25;5497700;25;19934;-65
2024/04/11 11:46:44;;;;;;;;;;;;;;;24.93;nan;102048.47;5472837;26;19928;-64
2024/04/11 11:49:12;;;;;;;;;;;;;;;24.68;nan;102035.59;5479590;25;19983;-64
2024/04/11 11:51:38;;;;;;;;;;;;;;;;;;5458663;26;19939;-64
2024/04/11 11:54:12;;;;;;;;;;;;;;;24.58;nan;102035.19;5497623;25;19957;-65
2024/04/11 11:56:39;;;;;;;;;;;;;;;;;;5502146;25;19931;-64
2024/04/11 11:59:04;;;;;;;;;;;;;;;24.67;nan;102041.19;5516251;26;19976;-65
2024/04/11 12:01:35;;;;;;;;;;;;;;;23.90;nan;102048.78;5502147;25;19939;-64
2024/04/11 12:04:00;;;;;;;;;;;;;;;;;;5517846;25;19927;-65
2024/04/11 12:06:33;;;;;;;;;;;;;;;23.99;nan;102044.03;5500150;25;19935;-64
2024/04/11 12:09:00;;;;;;;;;;;;;;;24.26;nan;102053.00;5500220;25;19935;-64
2024/04/11 12:11:28;;;;;;;;;;;;;;;24.73;nan;102043.09;5491339;25;19928;-65
2024/04/11 12:14:02;;;;;;;;;;;;;;;24.63;nan;102048.91;5513281;25;19943;-66
2024/04/11 12:16:38;;;;;;;;;;;;;;;24.54;nan;102033.94;5517248;25;20277;-65
2024/04/11 12:19:04;;;;;;;;;;;;;;;24.46;nan;102032.28;5479573;25;19928;-65
2024/04/11 12:21:44;;;;;;;;;;;;;;;24.63;nan;102032.69;5503296;25;19934;-64
2024/04/11 12:24:09;;;;;;;;;;;;;;;24.68;nan;102023.94;5474573;25;19955;-65
2024/04/11 12:26:35;;;;;;;;;;;;;;;24.60;nan;102022.28;5479167;25;19935;-65
2024/04/11 12:29:03;;;;;;;;;;;;;;;24.62;nan;102020.19;5472704;25;20454;-64
2024/04/11 12:31:28;;;;;;;;;;;;;;;24.48;nan;102013.13;5472412;25;19947;-67
2024/04/11 12:33:56;;;;;;;;;;;;;;;24.41;nan;102001.44;5473986;25;19927;-65
2024/04/11 12:39:21;;;;;;;;;;;;;;;24.10;nan;101998.31;5463142;25;21419;-65
2024/04/11 12:41:46;;;;;;;;;;;;;;;23.95;nan;102008.47;5479693;25;19936;-65
2024/04/11 12:44:12;;;;;;;;;;;;;;;23.90;nan;102000.97;5494714;25;19951;-65
2024/04/11 12:46:37;;;;;;;;;;;;;;;;;;5470640;25;19935;-65
2024/04/11 12:49:02;;;;;;;;;;;;;;;;;;5475787;25;19934;-65
2024/04/11 12:51:30;;;;;;;;;;;;;;;;;;5485795;25;19940;-66
2024/04/11 12:53:55;;;;;;;;;;;;;;;;;;5474444;25;19935;-65
2024/04/11 12:56:23;;;;;;;;;;;;;;;;;;5490495;25;19939;-65
2024/04/11 12:58:59;;;;;;;;;;;;;;;;;;5480752;26;20484;-64
2024/04/11 13:01:25;;;;;;;;;;;;;;;;;;5502172;25;19935;-65
2024/04/11 13:03:53;;;;;;;;;;;;;;;;;;5498844;25;20340;-64
2024/04/11 13:06:29;;;;;;;;;;;;;;;;;;5474189;25;19935;-64
2024/04/11 13:09:00;;;;;;;;;;;;;;;;;;5470874;26;20319;-65
2024/04/11 13:11:37;;;;;;;;;;;;;;;;;;5491081;25;20345;-64
2024/04/11 13:14:10;;;;;;;;;;;;;;;;;;5515654;25;20573;-64
2024/04/11 13:16:35;;;;;;;;;;;;;;;;;;5503657;25;20166;-64
2024/04/11 13:19:05;;;;;;;;;;;;;;;;;;5480809;25;19928;-65
2024/04/11 13:21:31;;;;;;;;;;;;;;;;;;5497644;25;19927;-65
2024/04/11 13:23:56;;;;;;;;;;;;;;;;;;5515296;25;19934;-64
2024/04/11 13:26:24;;;;;;;;;;;;;;;;;;5492562;25;20356;-65
2024/04/11 13:28:58;;;;;;;;;;;;;;;;;;5494393;25;19936;-64
2024/04/11 13:31:23;;;;;;;;;;;;;;;;;;5506980;25;19927;-65
2024/04/11 13:33:49;;;;;;;;;;;;;;;;;;5486586;25;19997;-64
2024/04/11 13:36:14;;;;;;;;;;;;;;;;;;5474579;25;20349;-65
2024/04/11 13:38:42;;;;;;;;;;;;;;;;;;5482222;25;20381;-65
2024/04/11 13:41:31;;;;;;;;;;;;;;;;;;5500171;25;19996;-65
2024/04/11 13:43:56;;;;;;;;;;;;;;;;;;5498710;25;20376;-64
2024/04/11 13:46:33;;;;;;;;;;;;;;;;;;5498776;25;20376;-64
2024/04/11 13:49:07;;;;;;;;;;;;;;;;;;5458009;26;19932;-64
2024/04/11 13:51:35;;;;;;;;;;;;;;;;;;5485867;26;19963;-64
2024/04/11 13:54:07;;;;;;;;;;;;;;;;;;5447518;25;19937;-64
2024/04/11 13:56:38;;;;;;;;;;;;;;;;;;5450974;26;20322;-65
2024/04/11 13:59:07;;;;;;;;;;;;;;;;;;5445612;26;19997;-64
2024/04/11 14:01:41;;;;;;;;;;;;;;;;;;5454096;26;20266;-64
2024/04/11 14:04:15;;;;;;;;;;;;;;;;;;5460495;25;19951;-65
2024/04/11 14:06:57;;;;;;;;;;;;;;;;;;5447745;25;19935;-64
2024/04/11 14:09:28;;;;;;;;;;;;;;;;;;5478745;25;19997;-64
2024/04/11 14:11:53;;;;;;;;;;;;;;;;;;5468681;25;19928;-64
2024/04/11 14:14:20;;;;;;;;;;;;;;;;;;5474099;25;19939;-65
2024/04/11 14:16:51;;;;;;;;;;;;;;;;;;5443204;26;19929;-65
2024/04/11 14:19:16;;;;;;;;;;;;;;;;;;5443476;26;20358;-65
2024/04/11 14:21:53;;;;;;;;;;;;;;;;;;5445248;26;20421;-65
2024/04/11 14:24:30;;;;;;;;;;;;;;;;;;5477369;25;20261;-65
2024/04/11 14:26:58;;;;;;;;;;;;;;;;;;5481585;25;19953;-65
2024/04/11 14:29:23;;;;;;;;;;;;;;;;;;5461486;25;20422;-66
2024/04/11 14:31:52;;;;;;;;;;;;;;;;;;5446463;26;20369;-66
2024/04/11 14:37:09;;;;;;;;;;;;;;;;;;5463856;26;19932;-66
2024/04/11 14:39:33;;;;;;;;;;;;;;;;;;5462150;26;19931;-65
2024/04/11 14:41:58;;;;;;;;;;;;;;;;;;5482310;25;19934;-66
2024/04/11 14:44:32;;;;;;;;;;;;;;;;;;5482558;25;20388;-65
2024/04/11 14:46:57;;;;;;;;;;;;;;;;;;5482048;25;19928;-67
2024/04/11 14:49:26;;;;;;;;;;;;;;;;;;5479893;26;19964;-65
2024/04/11 14:51:53;;;;;;;;;;;;;;;;;;5480775;25;19944;-66
2024/04/11 14:54:25;;;;;;;;;;;;;;;;;;5482065;25;19940;-65
2024/04/11 14:56:55;;;;;;;;;;;;;;;;;;5482178;25;19935;-67
2024/04/11 14:59:21;;;;;;;;;;;;;;;;;;5482417;25;20375;-65
2024/04/11 15:01:53;;;;;;;;;;;;;;;;;;5496493;25;19934;-66
2024/04/11 15:04:20;;;;;;;;;;;;;;;;;;5480646;25;19999;-65
2024/04/11 15:06:47;;;;;;;;;;;;;;;;;;5481549;25;19936;-65
2024/04/11 15:09:29;;;;;;;;;;;;;;;;;;5481779;25;20409;-65
2024/04/11 15:11:54;;;;;;;;;;;;;;;;;;5481869;25;20273;-66
2024/04/11 15:14:19;;;;;;;;;;;;;;;;;;5446886;25;20254;-65
2024/04/11 15:16:47;;;;;;;;;;;;;;;;;;5445407;26;20030;-65
2024/04/11 15:19:15;;;;;;;;;;;;;;;;;;5460799;26;20000;-65
2024/04/11 15:21:44;;;;;;;;;;;;;;;;;;5481695;26;19927;-65
2024/04/11 15:24:13;;;;;;;;;;;;;;;;;;5480956;25;19928;-66
2024/04/11 15:26:38;;;;;;;;;;;;;;;;;;5478380;25;20598;-64
2024/04/11 15:29:17;;;;;;;;;;;;;;;;;;5473800;25;20610;-67
2024/04/11 15:31:52;;;;;;;;;;;;;;;;;;5481797;25;20268;-66
2024/04/11 15:34:24;;;;;;;;;;;;;;;;;;5486651;25;19960;-66
2024/04/11 15:36:52;;;;;;;;;;;;;;;;;;5477704;25;19956;-66
2024/04/11 15:39:17;;;;;;;;;;;;;;;;;;5476232;26;19935;-65
2024/04/11 15:41:50;;;;;;;;;;;;;;;;;;5447918;25;19929;-66
2024/04/11 15:44:17;;;;;;;;;;;;;;;;;;5473716;25;20841;-65
2024/04/11 15:46:42;;;;;;;;;;;;;;;;;;5456300;26;19993;-65
2024/04/11 15:49:07;;;;;;;;;;;;;;;;;;5477788;25;19928;-64